createdAt,value
2022-08-16T00:00:42.751Z,14.94
2022-08-16T00:01:41.687Z,14.92
2022-08-16T00:02:41.390Z,14.92
2022-08-16T00:03:41.376Z,14.92
2022-08-16T00:04:41.376Z,14.91
2022-08-16T00:05:48.082Z,14.88
2022-08-16T00:06:42.342Z,14.83
2022-08-16T00:07:41.333Z,14.83
2022-08-16T00:08:41.324Z,14.88
2022-08-16T00:09:41.843Z,14.88
2022-08-16T00:10:41.295Z,14.91
2022-08-16T00:11:41.303Z,14.96
2022-08-16T00:12:41.274Z,14.94
2022-08-16T00:13:42.293Z,14.91
2022-08-16T00:14:41.253Z,14.91
2022-08-16T00:15:51.689Z,14.89
2022-08-16T00:17:00.825Z,14.88
2022-08-16T00:17:57.098Z,14.89
2022-08-16T00:18:42.219Z,14.88
2022-08-16T00:19:42.229Z,14.88
2022-08-16T00:20:41.187Z,14.84
2022-08-16T00:21:41.185Z,14.83
2022-08-16T00:22:45.416Z,14.83
2022-08-16T00:23:46.190Z,14.78
2022-08-16T00:24:41.147Z,14.77
2022-08-16T00:26:35.904Z,14.78
2022-08-16T00:26:44.557Z,14.75
2022-08-16T00:27:41.130Z,14.73
2022-08-16T00:28:42.099Z,14.73
2022-08-16T00:29:41.102Z,14.73
2022-08-16T00:30:41.079Z,14.75
2022-08-16T00:31:58.673Z,14.73
2022-08-16T00:32:42.091Z,14.77
2022-08-16T00:33:41.051Z,14.73
2022-08-16T00:34:52.678Z,14.72
2022-08-16T00:35:42.034Z,14.73
2022-08-16T00:36:47.214Z,14.72
2022-08-16T00:37:57.668Z,14.73
2022-08-16T00:38:43.700Z,14.75
2022-08-16T00:39:41.026Z,14.73
2022-08-16T00:40:43.944Z,14.75
2022-08-16T00:41:42.303Z,14.77
2022-08-16T00:42:40.954Z,14.77
2022-08-16T00:43:43.678Z,14.77
2022-08-16T00:44:40.925Z,14.77
2022-08-16T00:45:58.033Z,14.75
2022-08-16T00:46:53.963Z,14.75
2022-08-16T00:47:42.741Z,14.75
2022-08-16T00:48:44.381Z,14.75
2022-08-16T00:49:44.884Z,14.77
2022-08-16T00:50:41.883Z,14.81
2022-08-16T00:51:41.670Z,14.81
2022-08-16T00:52:50.919Z,14.83
2022-08-16T00:53:41.836Z,14.81
2022-08-16T00:54:40.827Z,14.81
2022-08-16T00:55:40.845Z,14.80
2022-08-16T00:56:56.899Z,14.78
2022-08-16T00:57:58.314Z,14.77
2022-08-16T00:58:41.785Z,14.81
2022-08-16T00:59:54.635Z,14.81
2022-08-16T01:00:41.803Z,14.83
2022-08-16T01:01:40.754Z,14.86
2022-08-16T01:02:40.738Z,14.88
2022-08-16T01:03:41.895Z,14.88
2022-08-16T01:04:40.719Z,14.88
2022-08-16T01:05:41.710Z,14.86
2022-08-16T01:06:49.486Z,14.84
2022-08-16T01:07:43.814Z,14.83
2022-08-16T01:08:41.672Z,14.81
2022-08-16T01:09:42.901Z,14.80
2022-08-16T01:10:40.642Z,14.77
2022-08-16T01:11:53.865Z,14.73
2022-08-16T01:12:41.624Z,14.73
2022-08-16T01:13:40.623Z,14.73
2022-08-16T01:14:40.610Z,14.75
2022-08-16T01:15:43.478Z,14.73
2022-08-16T01:16:40.585Z,14.72
2022-08-16T01:17:40.574Z,14.73
2022-08-16T01:18:41.550Z,14.72
2022-08-16T01:19:40.854Z,14.70
2022-08-16T01:20:40.652Z,14.70
2022-08-16T01:21:40.855Z,14.69
2022-08-16T01:22:49.764Z,14.65
2022-08-16T01:23:58.530Z,14.64
2022-08-16T01:24:53.626Z,14.65
2022-08-16T01:25:41.497Z,14.64
2022-08-16T01:26:40.468Z,14.64
2022-08-16T01:27:40.485Z,14.62
2022-08-16T01:28:45.447Z,14.61
2022-08-16T01:29:56.764Z,14.60
2022-08-16T01:30:49.805Z,14.60
2022-08-16T01:31:42.900Z,14.58
2022-08-16T01:32:40.408Z,14.58
2022-08-16T01:33:40.401Z,14.57
2022-08-16T01:34:47.463Z,14.54
2022-08-16T01:35:41.517Z,14.54
2022-08-16T01:36:40.373Z,14.54
2022-08-16T01:37:40.360Z,14.52
2022-08-16T01:38:40.341Z,14.52
2022-08-16T01:39:41.360Z,14.55
2022-08-16T01:40:40.320Z,14.54
2022-08-16T01:41:42.224Z,14.57
2022-08-16T01:42:40.302Z,14.58
2022-08-16T01:43:40.300Z,14.61
2022-08-16T01:44:40.273Z,14.61
2022-08-16T01:45:41.599Z,14.62
2022-08-16T01:46:40.919Z,14.62
2022-08-16T01:47:49.049Z,14.64
2022-08-16T01:48:41.234Z,14.61
2022-08-16T01:49:43.619Z,14.60
2022-08-16T01:51:09.750Z,14.60
2022-08-16T01:51:41.204Z,14.57
2022-08-16T01:52:40.289Z,14.57
2022-08-16T01:53:41.959Z,14.58
2022-08-16T01:54:40.173Z,14.58
2022-08-16T01:55:40.857Z,14.57
2022-08-16T01:56:40.146Z,14.61
2022-08-16T01:57:40.146Z,14.65
2022-08-16T01:58:41.148Z,14.70
2022-08-16T01:59:41.141Z,14.70
2022-08-16T02:00:40.110Z,14.69
2022-08-16T02:01:40.161Z,14.68
2022-08-16T02:02:42.525Z,14.68
2022-08-16T02:03:40.137Z,14.64
2022-08-16T02:04:54.252Z,14.65
2022-08-16T02:05:42.121Z,14.62
2022-08-16T02:06:46.625Z,14.65
2022-08-16T02:07:44.053Z,14.64
2022-08-16T02:08:40.139Z,14.62
2022-08-16T02:09:40.020Z,14.62
2022-08-16T02:10:40.819Z,14.61
2022-08-16T02:11:47.379Z,14.60
2022-08-16T02:12:52.540Z,14.57
2022-08-16T02:13:41.850Z,14.57
2022-08-16T02:14:39.998Z,14.60
2022-08-16T02:15:42.495Z,14.58
2022-08-16T02:16:39.942Z,14.60
2022-08-16T02:17:39.933Z,14.58
2022-08-16T02:18:39.921Z,14.58
2022-08-16T02:19:58.764Z,14.60
2022-08-16T02:20:42.567Z,14.62
2022-08-16T02:21:39.883Z,14.64
2022-08-16T02:22:42.846Z,14.65
2022-08-16T02:23:39.857Z,14.68
2022-08-16T02:24:41.983Z,14.70
2022-08-16T02:25:52.296Z,14.70
2022-08-16T02:26:41.638Z,14.69
2022-08-16T02:27:39.867Z,14.70
2022-08-16T02:28:39.807Z,14.68
2022-08-16T02:29:41.182Z,14.65
2022-08-16T02:30:44.323Z,14.62
2022-08-16T02:32:03.144Z,14.65
2022-08-16T02:33:01.061Z,14.61
2022-08-16T02:33:43.983Z,14.61
2022-08-16T02:34:41.086Z,14.61
2022-08-16T02:35:53.749Z,14.58
2022-08-16T02:36:48.294Z,14.57
2022-08-16T02:37:52.724Z,14.58
2022-08-16T02:38:40.699Z,14.62
2022-08-16T02:39:39.719Z,14.61
2022-08-16T02:40:39.679Z,14.62
2022-08-16T02:41:39.763Z,14.64
2022-08-16T02:42:39.668Z,14.64
2022-08-16T02:43:39.649Z,14.62
2022-08-16T02:44:39.631Z,14.61
2022-08-16T02:45:39.612Z,14.58
2022-08-16T02:46:39.611Z,14.58
2022-08-16T02:48:01.775Z,14.57
2022-08-16T02:48:47.392Z,14.55
2022-08-16T02:49:59.269Z,14.52
2022-08-16T02:50:53.623Z,14.51
2022-08-16T02:51:41.157Z,14.45
2022-08-16T02:52:39.546Z,14.43
2022-08-16T02:53:39.524Z,14.39
2022-08-16T02:54:39.535Z,14.37
2022-08-16T02:55:41.088Z,14.36
2022-08-16T02:56:39.516Z,14.35
2022-08-16T02:57:42.386Z,14.33
2022-08-16T02:58:40.485Z,14.35
2022-08-16T02:59:39.812Z,14.36
2022-08-16T03:00:39.457Z,14.36
2022-08-16T03:01:40.494Z,14.36
2022-08-16T03:02:39.687Z,14.36
2022-08-16T03:04:30.092Z,14.37
2022-08-16T03:04:52.138Z,14.37
2022-08-16T03:05:40.398Z,14.35
2022-08-16T03:06:41.695Z,14.35
2022-08-16T03:07:40.199Z,14.29
2022-08-16T03:08:52.004Z,14.29
2022-08-16T03:09:40.356Z,14.32
2022-08-16T03:10:39.349Z,14.32
2022-08-16T03:11:39.339Z,14.28
2022-08-16T03:12:56.450Z,14.25
2022-08-16T03:13:40.551Z,14.24
2022-08-16T03:14:39.311Z,14.22
2022-08-16T03:15:39.300Z,14.22
2022-08-16T03:16:41.967Z,14.21
2022-08-16T03:17:53.539Z,14.17
2022-08-16T03:18:40.528Z,14.18
2022-08-16T03:19:42.211Z,14.18
2022-08-16T03:20:40.243Z,14.18
2022-08-16T03:21:39.224Z,14.18
2022-08-16T03:22:39.229Z,14.20
2022-08-16T03:23:40.213Z,14.20
2022-08-16T03:24:39.425Z,14.20
2022-08-16T03:25:41.095Z,14.22
2022-08-16T03:26:39.174Z,14.20
2022-08-16T03:27:40.962Z,14.21
2022-08-16T03:28:39.164Z,14.24
2022-08-16T03:29:39.960Z,14.29
2022-08-16T03:30:40.145Z,14.32
2022-08-16T03:31:40.545Z,14.33
2022-08-16T03:32:39.237Z,14.35
2022-08-16T03:33:39.097Z,14.32
2022-08-16T03:34:39.096Z,14.32
2022-08-16T03:35:40.123Z,14.32
2022-08-16T03:36:39.077Z,14.32
2022-08-16T03:38:01.602Z,14.29
2022-08-16T03:38:40.047Z,14.25
2022-08-16T03:39:42.645Z,14.27
2022-08-16T03:40:39.065Z,14.28
2022-08-16T03:41:50.063Z,14.27
2022-08-16T03:43:18.787Z,14.25
2022-08-16T03:43:51.106Z,14.24
2022-08-16T03:44:44.955Z,14.24
2022-08-16T03:45:39.979Z,14.20
2022-08-16T03:46:47.446Z,14.17
2022-08-16T03:47:39.949Z,14.17
2022-08-16T03:48:40.600Z,14.14
2022-08-16T03:49:38.922Z,14.09
2022-08-16T03:50:38.921Z,14.06
2022-08-16T03:51:38.893Z,14.03
2022-08-16T03:52:38.907Z,14.03
2022-08-16T03:53:38.883Z,14.02
2022-08-16T03:54:38.884Z,13.96
2022-08-16T03:55:45.430Z,13.92
2022-08-16T03:56:39.887Z,13.95
2022-08-16T03:57:39.841Z,13.91
2022-08-16T03:58:38.832Z,13.89
2022-08-16T03:59:38.825Z,13.85
2022-08-16T04:00:40.995Z,13.85
2022-08-16T04:01:38.841Z,13.82
2022-08-16T04:02:40.290Z,13.81
2022-08-16T04:03:38.785Z,13.78
2022-08-16T04:04:38.766Z,13.77
2022-08-16T04:05:38.767Z,13.75
2022-08-16T04:06:38.747Z,13.71
2022-08-16T04:07:38.726Z,13.70
2022-08-16T04:08:39.610Z,13.67
2022-08-16T04:09:38.723Z,13.67
2022-08-16T04:10:38.698Z,13.67
2022-08-16T04:11:38.678Z,13.67
2022-08-16T04:12:53.706Z,13.69
2022-08-16T04:14:00.498Z,13.64
2022-08-16T04:14:46.644Z,13.64
2022-08-16T04:15:39.694Z,13.66
2022-08-16T04:16:38.640Z,13.66
2022-08-16T04:17:38.622Z,13.64
2022-08-16T04:18:38.621Z,13.62
2022-08-16T04:19:38.762Z,13.60
2022-08-16T04:20:40.251Z,13.60
2022-08-16T04:21:46.080Z,13.59
2022-08-16T04:22:45.345Z,13.57
2022-08-16T04:23:39.573Z,13.59
2022-08-16T04:24:38.553Z,13.57
2022-08-16T04:25:38.532Z,13.57
2022-08-16T04:26:46.164Z,13.57
2022-08-16T04:27:39.511Z,13.54
2022-08-16T04:28:53.496Z,13.52
2022-08-16T04:29:44.150Z,13.51
2022-08-16T04:30:39.483Z,13.48
2022-08-16T04:31:38.472Z,13.51
2022-08-16T04:32:39.464Z,13.49
2022-08-16T04:33:38.444Z,13.48
2022-08-16T04:34:39.435Z,13.48
2022-08-16T04:35:38.538Z,13.46
2022-08-16T04:36:38.430Z,13.48
2022-08-16T04:37:42.224Z,13.49
2022-08-16T04:38:38.397Z,13.46
2022-08-16T04:39:46.889Z,13.48
2022-08-16T04:40:39.528Z,13.44
2022-08-16T04:41:38.356Z,13.46
2022-08-16T04:42:38.424Z,13.48
2022-08-16T04:43:38.495Z,13.49
2022-08-16T04:44:53.867Z,13.45
2022-08-16T04:45:39.318Z,13.49
2022-08-16T04:47:00.513Z,13.48
2022-08-16T04:47:39.752Z,13.51
2022-08-16T04:48:38.621Z,13.54
2022-08-16T04:49:43.958Z,13.51
2022-08-16T04:50:43.546Z,13.49
2022-08-16T04:51:38.249Z,13.51
2022-08-16T04:52:38.242Z,13.55
2022-08-16T04:53:41.279Z,13.55
2022-08-16T04:54:38.222Z,13.57
2022-08-16T04:55:39.223Z,13.57
2022-08-16T04:56:43.007Z,13.60
2022-08-16T04:57:39.184Z,13.62
2022-08-16T04:58:45.964Z,13.62
2022-08-16T04:59:39.170Z,13.64
2022-08-16T05:00:38.163Z,13.64
2022-08-16T05:01:57.758Z,13.69
2022-08-16T05:02:42.168Z,13.71
2022-08-16T05:03:41.746Z,13.81
2022-08-16T05:04:38.112Z,13.87
2022-08-16T05:05:44.977Z,13.92
2022-08-16T05:06:45.054Z,13.99
2022-08-16T05:07:39.075Z,14.02
2022-08-16T05:08:39.085Z,14.06
2022-08-16T05:09:39.054Z,14.12
2022-08-16T05:10:39.047Z,14.15
2022-08-16T05:11:38.039Z,14.20
2022-08-16T05:12:38.029Z,14.24
2022-08-16T05:13:41.515Z,14.28
2022-08-16T05:14:45.832Z,14.29
2022-08-16T05:15:38.988Z,14.32
2022-08-16T05:16:37.986Z,14.33
2022-08-16T05:17:37.975Z,14.36
2022-08-16T05:18:37.959Z,14.36
2022-08-16T05:19:37.946Z,14.39
2022-08-16T05:20:45.280Z,14.42
2022-08-16T05:21:38.920Z,14.43
2022-08-16T05:22:37.931Z,14.47
2022-08-16T05:23:37.907Z,14.45
2022-08-16T05:24:37.898Z,14.50
2022-08-16T05:25:41.364Z,14.47
2022-08-16T05:26:40.916Z,14.47
2022-08-16T05:27:43.007Z,14.52
2022-08-16T05:28:39.140Z,14.54
2022-08-16T05:29:57.538Z,14.55
2022-08-16T05:30:38.835Z,14.57
2022-08-16T05:31:37.814Z,14.60
2022-08-16T05:32:45.881Z,14.61
2022-08-16T05:33:38.794Z,14.62
2022-08-16T05:34:37.794Z,14.65
2022-08-16T05:35:37.764Z,14.69
2022-08-16T05:36:37.774Z,14.70
2022-08-16T05:37:39.475Z,14.72
2022-08-16T05:38:39.461Z,14.75
2022-08-16T05:39:40.989Z,14.80
2022-08-16T05:40:37.724Z,14.84
2022-08-16T05:41:45.260Z,14.86
2022-08-16T05:42:38.816Z,14.86
2022-08-16T05:43:43.544Z,14.92
2022-08-16T05:44:38.687Z,14.94
2022-08-16T05:45:37.658Z,15.01
2022-08-16T05:46:43.646Z,15.03
2022-08-16T05:47:43.388Z,15.07
2022-08-16T05:48:37.749Z,15.11
2022-08-16T05:49:39.644Z,15.13
2022-08-16T05:50:37.618Z,15.17
2022-08-16T05:51:40.262Z,15.27
2022-08-16T05:52:37.597Z,15.31
2022-08-16T05:53:38.816Z,15.34
2022-08-16T05:54:37.570Z,15.36
2022-08-16T05:55:40.825Z,15.41
2022-08-16T05:56:37.855Z,15.49
2022-08-16T05:57:37.530Z,15.53
2022-08-16T05:58:37.530Z,15.57
2022-08-16T05:59:37.520Z,15.62
2022-08-16T06:00:37.511Z,15.67
2022-08-16T06:01:37.863Z,15.69
2022-08-16T06:02:37.497Z,15.72
2022-08-16T06:03:37.487Z,15.76
2022-08-16T06:04:37.919Z,15.82
2022-08-16T06:05:41.467Z,15.87
2022-08-16T06:06:37.478Z,15.89
2022-08-16T06:07:37.444Z,15.93
2022-08-16T06:08:42.164Z,15.94
2022-08-16T06:09:43.658Z,16.00
2022-08-16T06:10:38.432Z,16.05
2022-08-16T06:11:38.415Z,16.08
2022-08-16T06:12:37.378Z,16.11
2022-08-16T06:13:37.427Z,16.15
2022-08-16T06:14:37.373Z,16.17
2022-08-16T06:15:37.388Z,16.17
2022-08-16T06:16:37.356Z,16.24
2022-08-16T06:17:43.268Z,16.28
2022-08-16T06:18:38.318Z,16.31
2022-08-16T06:19:40.426Z,16.31
2022-08-16T06:20:37.384Z,16.35
2022-08-16T06:21:39.273Z,16.35
2022-08-16T06:22:39.518Z,16.41
2022-08-16T06:23:37.313Z,16.43
2022-08-16T06:24:53.569Z,16.46
2022-08-16T06:25:39.590Z,16.50
2022-08-16T06:26:39.239Z,16.50
2022-08-16T06:27:39.520Z,16.53
2022-08-16T06:28:37.269Z,16.58
2022-08-16T06:29:37.243Z,16.61
2022-08-16T06:30:43.279Z,16.63
2022-08-16T06:31:45.278Z,16.64
2022-08-16T06:32:42.912Z,16.67
2022-08-16T06:33:41.755Z,16.73
2022-08-16T06:34:56.128Z,16.73
2022-08-16T06:35:41.463Z,16.78
2022-08-16T06:36:37.188Z,16.82
2022-08-16T06:37:38.285Z,16.88
2022-08-16T06:38:37.104Z,16.91
2022-08-16T06:39:49.544Z,16.91
2022-08-16T06:40:38.094Z,16.96
2022-08-16T06:41:39.628Z,16.97
2022-08-16T06:42:49.669Z,17.00
2022-08-16T06:43:38.194Z,17.06
2022-08-16T06:44:37.401Z,17.11
2022-08-16T06:45:37.028Z,17.11
2022-08-16T06:46:37.051Z,17.19
2022-08-16T06:47:53.831Z,17.30
2022-08-16T06:48:42.815Z,17.36
2022-08-16T06:49:39.669Z,17.43
2022-08-16T06:50:36.969Z,17.51
2022-08-16T06:51:46.556Z,17.54
2022-08-16T06:52:58.438Z,17.56
2022-08-16T06:53:38.742Z,17.63
2022-08-16T06:54:36.920Z,17.63
2022-08-16T06:55:38.130Z,17.63
2022-08-16T06:56:36.900Z,17.63
2022-08-16T06:57:39.760Z,17.64
2022-08-16T06:58:36.998Z,17.66
2022-08-16T06:59:52.186Z,17.68
2022-08-16T07:00:37.969Z,17.63
2022-08-16T07:01:44.760Z,17.68
2022-08-16T07:02:38.260Z,17.70
2022-08-16T07:03:55.726Z,17.68
2022-08-16T07:04:37.817Z,17.72
2022-08-16T07:05:41.623Z,17.77
2022-08-16T07:06:37.816Z,17.81
2022-08-16T07:07:36.793Z,17.86
2022-08-16T07:08:36.774Z,17.89
2022-08-16T07:09:36.775Z,17.92
2022-08-16T07:10:36.746Z,17.95
2022-08-16T07:11:46.029Z,18.02
2022-08-16T07:12:47.495Z,18.11
2022-08-16T07:14:37.716Z,18.15
2022-08-16T07:15:36.697Z,18.18
2022-08-16T07:16:37.698Z,18.25
2022-08-16T07:17:36.679Z,18.29
2022-08-16T07:18:36.660Z,18.29
2022-08-16T07:20:30.755Z,18.32
2022-08-16T07:20:47.486Z,18.35
2022-08-16T07:21:46.422Z,18.39
2022-08-16T07:22:39.728Z,18.48
2022-08-16T07:23:38.753Z,18.52
2022-08-16T07:24:36.602Z,18.57
2022-08-16T07:25:40.508Z,18.60
2022-08-16T07:26:36.581Z,18.66
2022-08-16T07:27:37.283Z,18.70
2022-08-16T07:28:36.552Z,18.73
2022-08-16T07:29:36.553Z,18.78
2022-08-16T07:30:45.498Z,18.82
2022-08-16T07:31:38.357Z,18.85
2022-08-16T07:32:36.524Z,18.92
2022-08-16T07:33:53.409Z,18.99
2022-08-16T07:34:37.698Z,19.07
2022-08-16T07:35:37.495Z,19.16
2022-08-16T07:36:37.466Z,19.18
2022-08-16T07:37:36.474Z,19.23
2022-08-16T07:38:36.443Z,19.28
2022-08-16T07:39:43.261Z,19.31
2022-08-16T07:40:59.567Z,19.37
2022-08-16T07:41:37.427Z,19.41
2022-08-16T07:42:36.397Z,19.43
2022-08-16T07:43:36.401Z,19.55
2022-08-16T07:44:49.014Z,19.62
2022-08-16T07:45:37.376Z,19.78
2022-08-16T07:46:39.059Z,19.91
2022-08-16T07:47:36.359Z,20.02
2022-08-16T07:48:36.338Z,20.14
2022-08-16T07:49:36.330Z,20.21
2022-08-16T07:50:57.382Z,20.28
2022-08-16T07:51:37.403Z,20.35
2022-08-16T07:52:38.873Z,20.38
2022-08-16T07:53:43.786Z,20.47
2022-08-16T07:54:39.231Z,20.43
2022-08-16T07:55:45.709Z,20.43
2022-08-16T07:56:37.527Z,20.42
2022-08-16T07:57:55.911Z,20.48
2022-08-16T07:58:37.233Z,20.57
2022-08-16T07:59:46.269Z,20.62
2022-08-16T08:00:37.249Z,20.72
2022-08-16T08:01:36.204Z,20.73
2022-08-16T08:02:36.193Z,20.84
2022-08-16T08:03:39.254Z,20.84
2022-08-16T08:04:36.173Z,20.72
2022-08-16T08:05:36.964Z,20.76
2022-08-16T08:06:36.135Z,20.77
2022-08-16T08:07:36.819Z,20.67
2022-08-16T08:08:50.168Z,20.73
2022-08-16T08:09:37.118Z,20.87
2022-08-16T08:10:37.228Z,20.99
2022-08-16T08:11:36.088Z,21.12
2022-08-16T08:12:36.343Z,21.22
2022-08-16T08:13:42.753Z,21.28
2022-08-16T08:14:37.069Z,21.14
2022-08-16T08:15:37.189Z,21.10
2022-08-16T08:16:36.031Z,21.13
2022-08-16T08:17:42.277Z,21.19
2022-08-16T08:18:37.017Z,21.29
2022-08-16T08:19:36.011Z,21.43
2022-08-16T08:20:36.034Z,21.64
2022-08-16T08:22:00.554Z,21.83
2022-08-16T08:22:36.970Z,21.99
2022-08-16T08:23:35.969Z,22.02
2022-08-16T08:24:36.943Z,21.90
2022-08-16T08:25:53.517Z,21.88
2022-08-16T08:26:36.934Z,21.74
2022-08-16T08:27:36.925Z,21.82
2022-08-16T08:28:35.903Z,21.98
2022-08-16T08:29:37.725Z,22.15
2022-08-16T08:30:52.233Z,22.39
2022-08-16T08:31:36.875Z,22.57
2022-08-16T08:32:59.461Z,22.70
2022-08-16T08:33:36.856Z,22.82
2022-08-16T08:34:35.957Z,22.91
2022-08-16T08:35:35.835Z,22.94
2022-08-16T08:36:35.818Z,22.92
2022-08-16T08:37:53.924Z,23.01
2022-08-16T08:38:43.815Z,22.98
2022-08-16T08:39:36.871Z,22.86
2022-08-16T08:40:36.782Z,22.85
2022-08-16T08:41:35.769Z,22.83
2022-08-16T08:42:35.758Z,22.90
2022-08-16T08:43:41.330Z,23.01
2022-08-16T08:44:36.730Z,23.17
2022-08-16T08:45:46.952Z,23.33
2022-08-16T08:46:36.721Z,23.47
2022-08-16T08:47:35.710Z,23.57
2022-08-16T08:48:36.848Z,23.63
2022-08-16T08:49:46.123Z,23.72
2022-08-16T08:50:36.673Z,23.76
2022-08-16T08:51:37.114Z,23.87
2022-08-16T08:52:37.894Z,23.93
2022-08-16T08:53:36.664Z,23.90
2022-08-16T08:54:35.633Z,23.84
2022-08-16T08:55:35.624Z,23.76
2022-08-16T08:56:35.605Z,23.60
2022-08-16T08:57:35.605Z,23.55
2022-08-16T08:58:35.592Z,23.54
2022-08-16T08:59:40.786Z,23.58
2022-08-16T09:00:50.219Z,23.55
2022-08-16T09:01:43.167Z,23.63
2022-08-16T09:02:36.558Z,23.73
2022-08-16T09:03:35.607Z,23.73
2022-08-16T09:04:35.581Z,23.73
2022-08-16T09:05:37.210Z,23.75
2022-08-16T09:06:35.500Z,23.75
2022-08-16T09:08:00.538Z,23.80
2022-08-16T09:08:36.480Z,23.87
2022-08-16T09:09:40.888Z,23.97
2022-08-16T09:10:39.470Z,24.05
2022-08-16T09:11:41.021Z,24.13
2022-08-16T09:12:37.248Z,24.13
2022-08-16T09:13:35.424Z,24.18
2022-08-16T09:14:35.409Z,24.25
2022-08-16T09:15:35.411Z,24.35
2022-08-16T09:17:01.627Z,24.43
2022-08-16T09:17:51.698Z,24.46
2022-08-16T09:18:36.821Z,24.37
2022-08-16T09:19:35.708Z,24.34
2022-08-16T09:20:35.344Z,24.42
2022-08-16T09:21:36.335Z,24.40
2022-08-16T09:22:35.326Z,24.30
2022-08-16T09:23:36.620Z,24.35
2022-08-16T09:24:51.631Z,24.46
2022-08-16T09:25:36.299Z,24.61
2022-08-16T09:26:44.799Z,24.77
2022-08-16T09:27:56.579Z,24.77
2022-08-16T09:29:06.649Z,24.22
2022-08-16T09:29:44.539Z,24.06
2022-08-16T09:30:44.234Z,24.09
2022-08-16T09:31:36.239Z,24.22
2022-08-16T09:32:36.218Z,24.39
2022-08-16T09:33:37.418Z,24.52
2022-08-16T09:34:35.238Z,24.67
2022-08-16T09:35:37.531Z,24.83
2022-08-16T09:36:35.186Z,24.95
2022-08-16T09:37:36.564Z,25.09
2022-08-16T09:38:35.161Z,25.14
2022-08-16T09:39:42.080Z,25.17
2022-08-16T09:40:42.300Z,25.06
2022-08-16T09:41:36.123Z,25.02
2022-08-16T09:42:55.991Z,25.08
2022-08-16T09:43:59.435Z,25.23
2022-08-16T09:45:09.568Z,25.32
2022-08-16T09:45:36.095Z,25.36
2022-08-16T09:46:48.270Z,25.40
2022-08-16T09:47:57.270Z,25.54
2022-08-16T09:48:44.002Z,25.67
2022-08-16T09:49:37.173Z,25.77
2022-08-16T09:50:38.363Z,25.83
2022-08-16T09:51:36.922Z,25.92
2022-08-16T09:52:35.019Z,26.02
2022-08-16T09:53:36.018Z,26.17
2022-08-16T09:54:34.985Z,26.21
2022-08-16T09:55:44.449Z,26.15
2022-08-16T09:56:35.969Z,25.99
2022-08-16T09:57:34.989Z,25.82
2022-08-16T09:58:41.439Z,25.80
2022-08-16T09:59:38.803Z,25.83
2022-08-16T10:00:44.473Z,25.82
2022-08-16T10:01:35.924Z,25.79
2022-08-16T10:02:34.898Z,25.83
2022-08-16T10:03:36.049Z,25.83
2022-08-16T10:04:52.887Z,25.70
2022-08-16T10:05:35.884Z,25.64
2022-08-16T10:06:34.865Z,25.43
2022-08-16T10:07:44.536Z,25.42
2022-08-16T10:08:38.556Z,25.50
2022-08-16T10:09:44.772Z,25.47
2022-08-16T10:10:35.826Z,25.50
2022-08-16T10:11:49.855Z,25.46
2022-08-16T10:12:42.686Z,25.52
2022-08-16T10:13:35.917Z,25.65
2022-08-16T10:14:34.776Z,25.76
2022-08-16T10:15:34.775Z,25.90
2022-08-16T10:16:34.783Z,25.99
2022-08-16T10:17:35.581Z,25.99
2022-08-16T10:19:00.640Z,26.01
2022-08-16T10:19:35.737Z,26.05
2022-08-16T10:20:35.251Z,26.09
2022-08-16T10:21:34.739Z,26.07
2022-08-16T10:22:34.701Z,26.09
2022-08-16T10:23:34.691Z,26.17
2022-08-16T10:24:34.673Z,26.25
2022-08-16T10:27:16.547Z,26.39
2022-08-16T10:27:18.289Z,26.29
2022-08-16T10:27:46.010Z,26.35
2022-08-16T10:28:40.323Z,26.20
2022-08-16T10:30:00.317Z,26.12
2022-08-16T10:30:39.132Z,26.09
2022-08-16T10:31:46.076Z,26.07
2022-08-16T10:32:35.594Z,26.01
2022-08-16T10:33:34.577Z,25.88
2022-08-16T10:34:34.566Z,25.80
2022-08-16T10:35:34.585Z,25.80
2022-08-16T10:36:38.721Z,25.57
2022-08-16T10:37:36.464Z,25.38
2022-08-16T10:38:36.822Z,25.50
2022-08-16T10:39:41.596Z,25.55
2022-08-16T10:40:35.561Z,25.62
2022-08-16T10:41:34.508Z,25.67
2022-08-16T10:42:34.494Z,25.80
2022-08-16T10:43:34.478Z,25.98
2022-08-16T10:44:34.465Z,26.01
2022-08-16T10:45:36.890Z,26.12
2022-08-16T10:46:41.445Z,26.30
2022-08-16T10:47:38.669Z,26.50
2022-08-16T10:48:34.449Z,26.67
2022-08-16T10:49:34.411Z,26.87
2022-08-16T10:50:34.412Z,27.06
2022-08-16T10:52:01.221Z,27.19
2022-08-16T10:53:34.380Z,27.49
2022-08-16T10:54:34.364Z,27.60
2022-08-16T10:55:43.863Z,27.75
2022-08-16T10:56:51.856Z,27.75
2022-08-16T10:57:35.329Z,27.81
2022-08-16T10:58:34.958Z,27.82
2022-08-16T10:59:45.985Z,27.85
2022-08-16T11:00:35.296Z,27.88
2022-08-16T11:01:43.147Z,27.78
2022-08-16T11:02:58.967Z,27.70
2022-08-16T11:03:42.397Z,27.50
2022-08-16T11:06:35.362Z,27.29
2022-08-16T11:07:53.296Z,27.44
2022-08-16T11:08:37.034Z,27.55
2022-08-16T11:09:43.851Z,27.49
2022-08-16T11:11:35.270Z,27.66
2022-08-16T11:12:35.171Z,27.63
2022-08-16T11:14:35.142Z,27.54
2022-08-16T11:15:34.258Z,27.66
2022-08-16T11:17:35.123Z,27.72
2022-08-16T11:18:54.991Z,27.79
2022-08-16T11:20:00.130Z,27.96
2022-08-16T11:20:41.983Z,28.11
2022-08-16T11:21:35.187Z,28.11
2022-08-16T11:22:42.090Z,27.93
2022-08-16T11:23:35.045Z,27.99
2022-08-16T11:24:39.475Z,27.90
2022-08-16T11:26:35.020Z,27.85
2022-08-16T11:27:36.010Z,27.79
2022-08-16T11:29:12.540Z,27.79
2022-08-16T11:29:34.990Z,27.88
2022-08-16T11:30:38.698Z,28.04
2022-08-16T11:31:34.957Z,28.14
2022-08-16T11:32:33.971Z,28.11
2022-08-16T11:34:56.652Z,28.34
2022-08-16T11:36:34.912Z,28.39
2022-08-16T11:38:04.414Z,28.43
2022-08-16T11:38:51.457Z,28.46
2022-08-16T11:39:35.170Z,28.64
2022-08-16T11:40:33.863Z,28.80
2022-08-16T11:41:33.844Z,29.02
2022-08-16T11:42:37.581Z,29.18
2022-08-16T11:43:34.074Z,29.33
2022-08-16T11:44:51.981Z,29.41
2022-08-16T11:45:34.982Z,29.41
2022-08-16T11:46:43.236Z,29.42
2022-08-16T11:47:36.257Z,29.28
2022-08-16T11:48:34.577Z,29.26
2022-08-16T11:49:33.779Z,29.11
2022-08-16T11:50:33.915Z,28.81
2022-08-16T11:51:33.749Z,28.59
2022-08-16T11:52:33.739Z,28.44
2022-08-16T11:53:36.001Z,28.46
2022-08-16T11:54:36.286Z,28.54
2022-08-16T11:55:33.700Z,28.59
2022-08-16T11:56:51.769Z,28.68
2022-08-16T11:57:35.494Z,28.66
2022-08-16T11:58:33.682Z,28.78
2022-08-16T11:59:33.662Z,28.86
2022-08-16T12:00:50.337Z,28.92
2022-08-16T12:01:54.833Z,28.95
2022-08-16T12:02:35.293Z,28.86
2022-08-16T12:03:34.868Z,29.04
2022-08-16T12:04:33.664Z,29.06
2022-08-16T12:05:33.597Z,29.14
2022-08-16T12:06:33.823Z,29.08
2022-08-16T12:07:33.668Z,29.05
2022-08-16T12:08:33.607Z,29.14
2022-08-16T12:09:33.567Z,29.19
2022-08-16T12:10:34.556Z,29.23
2022-08-16T12:11:33.540Z,29.27
2022-08-16T12:12:33.537Z,29.14
2022-08-16T12:13:33.516Z,28.83
2022-08-16T12:14:35.237Z,28.71
2022-08-16T12:15:33.498Z,28.73
2022-08-16T12:16:34.451Z,28.80
2022-08-16T12:17:33.509Z,28.78
2022-08-16T12:18:33.508Z,28.74
2022-08-16T12:19:35.696Z,28.77
2022-08-16T12:20:33.460Z,28.98
2022-08-16T12:21:36.083Z,29.05
2022-08-16T12:22:36.826Z,29.21
2022-08-16T12:23:33.412Z,29.36
2022-08-16T12:24:33.413Z,29.46
2022-08-16T12:25:33.408Z,29.65
2022-08-16T12:26:33.383Z,29.79
2022-08-16T12:27:33.374Z,29.92
2022-08-16T12:28:55.182Z,29.97
2022-08-16T12:29:34.356Z,30.00
2022-08-16T12:30:37.740Z,30.13
2022-08-16T12:31:34.326Z,30.31
2022-08-16T12:32:39.399Z,30.37
2022-08-16T12:33:44.571Z,30.42
2022-08-16T12:34:34.650Z,30.27
2022-08-16T12:35:33.474Z,30.26
2022-08-16T12:36:33.278Z,30.34
2022-08-16T12:37:33.264Z,30.37
2022-08-16T12:38:41.479Z,30.24
2022-08-16T12:39:34.383Z,30.04
2022-08-16T12:40:33.337Z,29.68
2022-08-16T12:41:34.950Z,29.55
2022-08-16T12:42:35.397Z,29.46
2022-08-16T12:43:33.202Z,29.58
2022-08-16T12:44:33.211Z,29.58
2022-08-16T12:45:33.200Z,29.78
2022-08-16T12:46:33.180Z,30.02
2022-08-16T12:47:34.636Z,29.92
2022-08-16T12:48:34.108Z,30.01
2022-08-16T12:49:33.135Z,30.08
2022-08-16T12:50:34.144Z,30.08
2022-08-16T12:51:58.949Z,29.90
2022-08-16T12:52:36.013Z,29.97
2022-08-16T12:53:33.096Z,30.04
2022-08-16T12:54:33.097Z,29.95
2022-08-16T12:55:33.500Z,30.05
2022-08-16T12:56:34.092Z,30.00
2022-08-16T12:57:36.547Z,30.04
2022-08-16T12:58:49.683Z,30.02
2022-08-16T12:59:34.038Z,30.08
2022-08-16T13:00:33.950Z,30.00
2022-08-16T13:01:33.477Z,30.16
2022-08-16T13:02:33.638Z,30.15